ΕΜΥ, Εθνική Μετεωρολογική Υπηρεσία - Δελτία Καιρού, Προγνώσεις

ΑΕΡΟΝΑΥΤΙΛΙΑ

GREEK AIRPORTS CODES

TAF LGRP 212300Z 2200/2224 VRB05KT 9999 FEW018 SCT050 PROB30 TEMPO 2200/2209 5000 RA FEW018TCU SCT020 BKN050 BECMG 2207/2209 14012KT TEMPO 2216/2224 14014G28KT=

EUROPEAN AIRPORTS CODES